createdAt,value
2019-04-05T00:02:20.072Z,7.93
2019-04-05T00:04:50.468Z,5.00
2019-04-05T00:07:21.745Z,6.67
2019-04-05T00:09:51.928Z,7.10
2019-04-05T00:12:21.905Z,6.23
2019-04-05T00:14:52.698Z,7.35
2019-04-05T00:17:23.864Z,6.03
2019-04-05T00:19:54.095Z,5.97
2019-04-05T00:22:24.238Z,6.50
2019-04-05T00:24:57.290Z,8.60
2019-04-05T00:27:28.515Z,8.90
2019-04-05T00:29:58.664Z,7.57
2019-04-05T00:32:28.673Z,8.25
2019-04-05T00:34:58.916Z,6.80
2019-04-05T00:37:31.448Z,7.72
2019-04-05T00:40:01.552Z,7.80
2019-04-05T00:42:31.599Z,7.43
2019-04-05T00:45:01.804Z,6.73
2019-04-05T00:47:32.976Z,5.07
2019-04-05T00:50:03.808Z,5.77
2019-04-05T00:52:33.946Z,6.25
2019-04-05T00:55:05.328Z,10.20
2019-04-05T00:57:36.523Z,5.50
2019-04-05T01:00:07.804Z,7.67
2019-04-05T01:02:38.484Z,5.37
2019-04-05T01:05:08.976Z,5.17
2019-04-05T01:07:40.379Z,6.80
2019-04-05T01:10:11.128Z,4.83
2019-04-05T01:12:41.981Z,8.30
2019-04-05T01:15:12.481Z,4.85
2019-04-05T01:17:43.721Z,9.93
2019-04-05T01:20:14.641Z,7.70
2019-04-05T01:22:46.593Z,3.67
2019-04-05T01:25:16.798Z,10.53
2019-04-05T01:27:48.579Z,7.63
2019-04-05T01:30:19.082Z,5.90
2019-04-05T01:32:49.354Z,5.35
2019-04-05T01:35:19.614Z,5.47
2019-04-05T01:37:52.569Z,10.47
2019-04-05T01:40:23.253Z,4.77
2019-04-05T01:42:53.671Z,6.73
2019-04-05T01:45:24.090Z,6.77
2019-04-05T01:47:55.184Z,4.37
2019-04-05T01:50:25.841Z,9.43
2019-04-05T01:52:55.921Z,3.37
2019-04-05T01:55:26.134Z,3.17
2019-04-05T01:57:57.419Z,5.15
2019-04-05T02:00:27.596Z,5.13
2019-04-05T02:02:57.932Z,2.33
2019-04-05T02:05:28.318Z,5.57
2019-04-05T02:07:59.649Z,7.47
2019-04-05T02:10:29.924Z,3.17
2019-04-05T02:13:00.102Z,2.80
2019-04-05T02:15:32.608Z,5.30
2019-04-05T02:18:04.088Z,4.07
2019-04-05T02:20:34.259Z,5.50
2019-04-05T02:23:04.451Z,4.62
2019-04-05T02:25:34.650Z,6.67
2019-04-05T02:28:05.719Z,2.93
2019-04-05T02:30:36.064Z,4.60
2019-04-05T02:33:06.704Z,10.05
2019-04-05T02:35:39.042Z,4.62
2019-04-05T02:38:11.409Z,6.67
2019-04-05T02:40:42.957Z,6.70
2019-04-05T02:43:16.182Z,6.13
2019-04-05T02:45:53.314Z,6.10
2019-04-05T02:48:26.705Z,5.70
2019-04-05T02:51:01.754Z,8.08
2019-04-05T02:53:34.415Z,6.97
2019-04-05T02:56:05.772Z,3.07
2019-04-05T02:58:37.056Z,4.23
2019-04-05T03:01:07.748Z,5.90
2019-04-05T03:03:38.298Z,5.03
2019-04-05T03:06:09.974Z,4.12
2019-04-05T03:08:42.302Z,4.87
2019-04-05T03:11:14.388Z,3.27
2019-04-05T03:13:50.472Z,3.67
2019-04-05T03:16:40.210Z,7.05
2019-04-05T03:19:13.640Z,4.17
2019-04-05T03:21:46.863Z,4.72
2019-04-05T03:24:19.840Z,5.17
2019-04-05T03:26:54.034Z,7.27
2019-04-05T03:29:24.694Z,5.93
2019-04-05T03:31:55.065Z,4.53
2019-04-05T03:34:25.863Z,3.17
2019-04-05T03:36:57.082Z,2.52
2019-04-05T03:39:28.805Z,3.53
2019-04-05T03:41:59.291Z,4.62
2019-04-05T03:44:29.795Z,2.40
2019-04-05T03:47:01.135Z,4.83
2019-04-05T03:49:31.593Z,8.10
2019-04-05T03:52:06.812Z,4.42
2019-04-05T03:54:38.077Z,4.23
2019-04-05T03:57:08.791Z,5.72
2019-04-05T03:59:39.707Z,4.42
2019-04-05T04:02:10.835Z,5.55
2019-04-05T04:04:41.897Z,5.73
2019-04-05T04:07:14.021Z,8.07
2019-04-05T04:09:44.123Z,2.90
2019-04-05T04:12:14.700Z,3.10
2019-04-05T04:14:45.338Z,3.98
2019-04-05T04:17:16.912Z,6.17
2019-04-05T04:19:50.532Z,2.98
2019-04-05T04:22:23.489Z,4.17
2019-04-05T04:24:53.682Z,3.70
2019-04-05T04:27:25.306Z,5.13
2019-04-05T04:29:56.263Z,7.80
2019-04-05T04:32:26.737Z,3.45
2019-04-05T04:34:57.422Z,9.03
2019-04-05T04:37:29.574Z,3.80
2019-04-05T04:39:59.766Z,4.43
2019-04-05T04:42:30.454Z,13.03
2019-04-05T04:45:11.416Z,33.77
2019-04-05T04:47:35.845Z,8.95
2019-04-05T04:50:07.755Z,5.67
2019-04-05T04:52:38.191Z,4.10
2019-04-05T04:55:08.756Z,8.83
2019-04-05T04:57:45.794Z,2.40
2019-04-05T05:00:16.464Z,8.20
2019-04-05T05:02:46.922Z,4.33
2019-04-05T05:05:19.074Z,3.73
2019-04-05T05:07:52.154Z,4.62
2019-04-05T05:10:22.734Z,5.00
2019-04-05T05:12:52.957Z,4.12
2019-04-05T05:15:23.199Z,4.43
2019-04-05T05:17:58.870Z,9.43
2019-04-05T05:20:28.090Z,7.20
2019-04-05T05:22:58.706Z,6.40
2019-04-05T05:25:28.985Z,11.23
2019-04-05T05:28:07.008Z,3.50
2019-04-05T05:30:36.953Z,5.85
2019-04-05T05:33:07.563Z,3.98
2019-04-05T05:35:37.835Z,6.10
2019-04-05T05:38:10.895Z,5.33
2019-04-05T05:40:42.122Z,4.90
2019-04-05T05:43:12.200Z,11.83
2019-04-05T05:45:42.260Z,19.97
2019-04-05T05:48:15.170Z,10.03
2019-04-05T05:50:45.344Z,10.50
2019-04-05T05:53:15.665Z,5.57
2019-04-05T05:55:45.626Z,5.13
2019-04-05T05:58:25.365Z,6.70
2019-04-05T06:00:54.946Z,4.72
2019-04-05T06:03:25.116Z,4.20
2019-04-05T06:06:04.350Z,5.23
2019-04-05T06:08:29.096Z,5.40
2019-04-05T06:10:58.395Z,2.30
2019-04-05T06:13:28.585Z,11.10
2019-04-05T06:15:58.647Z,36.67
2019-04-05T06:18:31.313Z,23.70
2019-04-05T06:21:03.469Z,8.67
2019-04-05T06:23:34.266Z,6.40
2019-04-05T06:26:05.178Z,5.40
2019-04-05T06:28:35.313Z,10.47
2019-04-05T06:31:05.902Z,6.53
2019-04-05T06:33:36.544Z,4.03
2019-04-05T06:36:06.636Z,5.70
2019-04-05T06:38:36.818Z,5.67
2019-04-05T06:41:07.821Z,4.92
2019-04-05T06:43:37.954Z,6.35
2019-04-05T06:46:10.811Z,6.83
2019-04-05T06:48:41.028Z,5.33
2019-04-05T06:51:11.572Z,8.43
2019-04-05T06:53:41.898Z,7.62
2019-04-05T06:56:11.898Z,6.25
2019-04-05T06:58:42.063Z,6.53
2019-04-05T07:01:12.115Z,18.67
2019-04-05T07:03:42.760Z,19.82
2019-04-05T07:06:13.311Z,10.72
2019-04-05T07:08:53.153Z,4.60
2019-04-05T07:11:14.963Z,4.77
2019-04-05T07:13:45.042Z,8.83
2019-04-05T07:16:15.087Z,5.33
2019-04-05T07:18:45.866Z,6.50
2019-04-05T07:21:17.472Z,3.30
2019-04-05T07:23:47.803Z,5.65
2019-04-05T07:26:20.979Z,6.97
2019-04-05T07:28:51.190Z,8.98
2019-04-05T07:31:21.812Z,5.15
2019-04-05T07:33:52.551Z,10.55
2019-04-05T07:36:23.599Z,4.62
2019-04-05T07:38:54.251Z,7.78
2019-04-05T07:41:25.882Z,6.72
2019-04-05T07:43:56.590Z,6.97
2019-04-05T07:46:27.153Z,5.75
2019-04-05T07:48:57.921Z,5.37
2019-04-05T07:51:28.535Z,5.15
2019-04-05T07:53:59.271Z,6.67
2019-04-05T07:56:31.132Z,4.55
2019-04-05T07:59:01.755Z,6.12
2019-04-05T08:01:32.393Z,9.75
2019-04-05T08:04:03.178Z,9.70
2019-04-05T08:06:37.667Z,12.50
2019-04-05T08:09:11.065Z,10.05
2019-04-05T08:11:43.939Z,10.13
2019-04-05T08:14:18.163Z,8.60
2019-04-05T08:16:50.273Z,8.55
2019-04-05T08:19:21.015Z,8.00
2019-04-05T08:21:51.653Z,5.17
2019-04-05T08:24:22.295Z,7.50
2019-04-05T08:26:54.124Z,4.45
2019-04-05T08:29:25.007Z,6.33
2019-04-05T08:31:55.720Z,8.40
2019-04-05T08:34:26.358Z,7.53
2019-04-05T08:36:58.098Z,6.50
2019-04-05T08:39:28.752Z,6.10
2019-04-05T08:41:59.480Z,11.68
2019-04-05T08:44:30.224Z,7.15
2019-04-05T08:47:01.863Z,7.83
2019-04-05T08:49:32.618Z,9.58
2019-04-05T08:52:03.129Z,5.28
2019-04-05T08:54:36.616Z,5.12
2019-04-05T08:57:07.356Z,3.95
2019-04-05T08:59:38.111Z,4.42
2019-04-05T09:02:08.726Z,6.10
2019-04-05T09:04:39.374Z,8.18
2019-04-05T09:07:10.999Z,5.80
2019-04-05T09:09:41.655Z,7.00
2019-04-05T09:12:12.331Z,5.92
2019-04-05T09:14:43.057Z,7.83
2019-04-05T09:17:25.582Z,7.25
2019-04-05T09:19:56.361Z,6.03
2019-04-05T09:22:27.039Z,6.97
2019-04-05T09:24:57.808Z,5.40
2019-04-05T09:27:29.410Z,6.85
2019-04-05T09:30:00.067Z,7.92
2019-04-05T09:32:30.717Z,7.35
2019-04-05T09:35:01.445Z,7.37
2019-04-05T09:37:33.158Z,7.58
2019-04-05T09:40:05.095Z,7.92
2019-04-05T09:42:35.748Z,6.33
2019-04-05T09:45:07.663Z,7.90
2019-04-05T09:47:39.276Z,7.85
2019-04-05T09:50:10.736Z,6.72
2019-04-05T09:52:41.452Z,6.33
2019-04-05T09:55:12.227Z,5.42
2019-04-05T09:57:43.907Z,7.95
2019-04-05T10:00:20.582Z,5.42
2019-04-05T10:02:51.101Z,9.95
2019-04-05T10:05:21.793Z,6.42
2019-04-05T10:07:55.193Z,11.83
2019-04-05T10:10:25.463Z,6.97
2019-04-05T10:12:57.295Z,7.87
2019-04-05T10:15:28.069Z,7.08
2019-04-05T10:17:58.764Z,4.22
2019-04-05T10:20:29.469Z,4.47
2019-04-05T10:22:59.996Z,3.72
2019-04-05T10:25:30.708Z,3.75
2019-04-05T10:28:01.375Z,4.10
2019-04-05T10:30:32.187Z,3.00
2019-04-05T10:33:02.809Z,4.35
2019-04-05T10:35:33.468Z,2.52
2019-04-05T10:38:04.209Z,4.03
2019-04-05T10:40:34.970Z,3.70
2019-04-05T10:43:07.629Z,6.20
2019-04-05T10:45:38.277Z,3.85
2019-04-05T10:48:11.179Z,4.00
2019-04-05T10:50:41.848Z,4.35
2019-04-05T10:53:12.500Z,3.42
2019-04-05T10:55:43.370Z,4.53
2019-04-05T10:58:16.159Z,6.22
2019-04-05T11:00:47.007Z,7.58
2019-04-05T11:03:17.631Z,4.75
2019-04-05T11:05:49.408Z,5.72
2019-04-05T11:08:20.385Z,4.80
2019-04-05T11:10:51.031Z,5.05
2019-04-05T11:13:21.637Z,3.98
2019-04-05T11:15:52.272Z,4.60
2019-04-05T11:18:23.082Z,5.85
2019-04-05T11:20:53.695Z,5.47
2019-04-05T11:23:24.217Z,4.92
2019-04-05T11:25:54.926Z,5.53
2019-04-05T11:28:25.522Z,8.08
2019-04-05T11:30:56.228Z,6.00
2019-04-05T11:33:26.814Z,4.87
2019-04-05T11:35:58.062Z,5.75
2019-04-05T11:38:29.522Z,5.20
2019-04-05T11:41:00.651Z,5.83
2019-04-05T11:43:34.084Z,5.60
2019-04-05T11:46:05.010Z,5.37
2019-04-05T11:48:41.812Z,7.37
2019-04-05T11:51:14.475Z,7.30
2019-04-05T11:53:45.320Z,7.75
2019-04-05T11:56:19.742Z,25.68
2019-04-05T11:58:49.602Z,8.63
2019-04-05T12:01:24.629Z,7.37
2019-04-05T12:03:55.246Z,7.15
2019-04-05T12:06:25.848Z,5.83
2019-04-05T12:08:56.480Z,5.55
2019-04-05T12:11:27.204Z,5.85
2019-04-05T12:13:57.873Z,6.83
2019-04-05T12:16:29.659Z,5.50
2019-04-05T12:19:00.251Z,4.08
2019-04-05T12:21:32.617Z,6.40
2019-04-05T12:24:03.454Z,5.40
2019-04-05T12:26:35.261Z,3.60
2019-04-05T12:29:06.060Z,3.10
2019-04-05T12:31:36.695Z,4.03
2019-04-05T12:34:07.468Z,4.72
2019-04-05T12:36:39.185Z,7.12
2019-04-05T12:39:09.704Z,4.37
2019-04-05T12:41:40.939Z,6.75
2019-04-05T12:44:15.125Z,4.72
2019-04-05T12:46:46.280Z,4.47
2019-04-05T12:49:16.924Z,4.12
2019-04-05T12:51:47.803Z,3.95
2019-04-05T12:54:18.320Z,3.60
2019-04-05T12:56:50.191Z,9.18
2019-04-05T12:59:20.885Z,13.65
2019-04-05T13:01:51.648Z,6.22
2019-04-05T13:04:22.181Z,5.87
2019-04-05T13:06:53.703Z,3.67
2019-04-05T13:09:24.703Z,5.40
2019-04-05T13:11:57.274Z,4.35
2019-04-05T13:14:27.952Z,5.62
2019-04-05T13:17:02.632Z,4.50
2019-04-05T13:19:31.949Z,5.62
2019-04-05T13:22:03.498Z,4.20
2019-04-05T13:24:34.200Z,4.62
2019-04-05T13:27:05.445Z,4.37
2019-04-05T13:29:35.948Z,8.93
2019-04-05T13:32:06.556Z,14.98
2019-04-05T13:34:37.142Z,4.75
2019-04-05T13:37:19.539Z,2.58
2019-04-05T13:39:40.200Z,2.75
2019-04-05T13:42:10.912Z,2.58
2019-04-05T13:44:42.593Z,5.10
2019-04-05T13:47:13.366Z,3.22
2019-04-05T13:49:43.890Z,3.90
2019-04-05T13:52:14.535Z,3.17
2019-04-05T13:54:45.253Z,4.33
2019-04-05T13:57:16.194Z,2.80
2019-04-05T13:59:46.799Z,2.58
2019-04-05T14:02:20.549Z,3.62
2019-04-05T14:04:53.301Z,5.67
2019-04-05T14:07:24.535Z,3.27
2019-04-05T14:09:54.235Z,3.42
2019-04-05T14:12:25.867Z,3.22
2019-04-05T14:14:56.373Z,2.08
2019-04-05T14:17:28.100Z,3.35
2019-04-05T14:19:58.636Z,3.05
2019-04-05T14:22:29.375Z,2.92
2019-04-05T14:25:00.077Z,2.92
2019-04-05T14:27:34.796Z,3.62
2019-04-05T14:30:05.306Z,3.75
2019-04-05T14:32:35.948Z,3.33
2019-04-05T14:35:08.369Z,4.20
2019-04-05T14:37:39.083Z,4.50
2019-04-05T14:40:10.292Z,5.28
2019-04-05T14:42:42.599Z,3.50
2019-04-05T14:45:14.236Z,4.40
2019-04-05T14:47:44.877Z,4.80
2019-04-05T14:50:16.226Z,2.80
2019-04-05T14:52:49.463Z,2.33
2019-04-05T14:55:19.169Z,3.58
2019-04-05T14:57:51.011Z,3.08
2019-04-05T15:00:21.715Z,3.17
2019-04-05T15:02:52.340Z,4.17
2019-04-05T15:05:22.850Z,4.28
2019-04-05T15:07:55.062Z,4.12
2019-04-05T15:10:26.229Z,3.47
2019-04-05T15:12:57.114Z,3.55
2019-04-05T15:15:27.633Z,3.45
2019-04-05T15:17:59.255Z,3.90
2019-04-05T15:20:29.903Z,3.45
2019-04-05T15:23:00.610Z,3.30
2019-04-05T15:25:31.145Z,5.45
2019-04-05T15:28:02.991Z,3.85
2019-04-05T15:30:33.529Z,2.50
2019-04-05T15:33:04.691Z,2.95
2019-04-05T15:35:35.275Z,3.55
2019-04-05T15:38:06.943Z,3.58
2019-04-05T15:40:37.575Z,3.20
2019-04-05T15:43:08.420Z,2.98
2019-04-05T15:45:42.581Z,2.10
2019-04-05T15:48:13.252Z,6.05
2019-04-05T15:50:43.786Z,3.70
2019-04-05T15:53:14.410Z,3.15
2019-04-05T15:55:44.933Z,2.50
2019-04-05T15:58:15.691Z,4.60
2019-04-05T16:00:46.462Z,2.87
2019-04-05T16:03:17.515Z,2.58
2019-04-05T16:05:48.368Z,3.83
2019-04-05T16:08:20.057Z,2.80
2019-04-05T16:10:50.596Z,4.60
2019-04-05T16:13:21.320Z,3.83
2019-04-05T16:15:51.863Z,6.17
2019-04-05T16:18:23.491Z,8.48
2019-04-05T16:20:54.054Z,2.10
2019-04-05T16:23:24.790Z,3.87
2019-04-05T16:25:55.304Z,3.95
2019-04-05T16:28:27.138Z,3.08
2019-04-05T16:30:58.760Z,3.22
2019-04-05T16:33:29.387Z,2.70
2019-04-05T16:35:59.914Z,6.65
2019-04-05T16:38:30.561Z,4.40
2019-04-05T16:41:01.198Z,4.60
2019-04-05T16:43:31.915Z,4.75
2019-04-05T16:46:02.557Z,4.35
2019-04-05T16:48:33.337Z,7.47
2019-04-05T16:51:04.045Z,5.03
2019-04-05T16:53:35.078Z,7.97
2019-04-05T16:56:05.833Z,6.15
2019-04-05T16:58:36.644Z,5.35
2019-04-05T17:01:07.333Z,5.97
2019-04-05T17:03:38.071Z,10.80
2019-04-05T17:06:08.632Z,7.20
2019-04-05T17:08:39.350Z,9.40
2019-04-05T17:11:09.912Z,11.50
2019-04-05T17:13:40.563Z,9.15
2019-04-05T17:16:11.073Z,8.18
2019-04-05T17:18:41.823Z,7.20
2019-04-05T17:21:12.634Z,6.67
2019-04-05T17:23:43.375Z,7.00
2019-04-05T17:26:13.912Z,12.73
2019-04-05T17:28:45.619Z,7.78
2019-04-05T17:31:16.158Z,6.87
2019-04-05T17:33:46.965Z,6.87
2019-04-05T17:36:17.522Z,8.58
2019-04-05T17:38:48.159Z,7.83
2019-04-05T17:41:18.802Z,7.10
2019-04-05T17:43:49.647Z,7.45
2019-04-05T17:46:22.451Z,7.42
2019-04-05T17:48:54.400Z,9.35
2019-04-05T17:51:25.225Z,8.53
2019-04-05T17:53:55.988Z,10.60
2019-04-05T17:56:27.155Z,8.45
2019-04-05T17:58:58.244Z,10.32
2019-04-05T18:01:29.064Z,9.45
2019-04-05T18:03:59.706Z,7.22
2019-04-05T18:06:31.491Z,9.35
2019-04-05T18:09:03.470Z,9.80
2019-04-05T18:11:35.444Z,9.50
2019-04-05T18:14:06.104Z,12.10
2019-04-05T18:16:36.804Z,10.13
2019-04-05T18:19:08.001Z,12.58
2019-04-05T18:21:39.103Z,12.98
2019-04-05T18:24:10.968Z,12.18
2019-04-05T18:26:42.119Z,33.73
2019-04-05T18:29:12.915Z,25.48
2019-04-05T18:31:43.464Z,15.50
2019-04-05T18:34:14.100Z,13.62
2019-04-05T18:36:44.814Z,12.55
2019-04-05T18:39:15.563Z,14.10
2019-04-05T18:41:46.117Z,15.35
2019-04-05T18:44:16.796Z,23.87
2019-04-05T18:46:49.500Z,25.50
2019-04-05T18:49:21.347Z,13.25
2019-04-05T18:51:51.908Z,11.95
2019-04-05T18:54:22.526Z,10.93
2019-04-05T18:56:53.652Z,11.22
2019-04-05T18:59:24.454Z,13.38
2019-04-05T19:01:55.090Z,11.75
2019-04-05T19:04:25.964Z,13.88
2019-04-05T19:06:57.714Z,10.85
2019-04-05T19:09:28.390Z,11.18
2019-04-05T19:11:59.110Z,13.30
2019-04-05T19:14:29.774Z,12.90
2019-04-05T19:17:00.845Z,12.00
2019-04-05T19:19:31.601Z,12.75
2019-04-05T19:22:02.250Z,11.70
2019-04-05T19:24:32.520Z,11.78
2019-04-05T19:27:04.292Z,14.15
2019-04-05T19:29:35.238Z,12.25
2019-04-05T19:49:54.242Z,115.55
2019-04-05T19:52:24.886Z,59.23
2019-04-05T19:54:55.549Z,34.15
2019-04-05T19:57:27.306Z,25.88
2019-04-05T19:59:58.131Z,19.85
2019-04-05T20:02:28.786Z,17.55
2019-04-05T20:05:00.694Z,16.67
2019-04-05T20:07:32.810Z,16.12
2019-04-05T20:10:03.985Z,17.77
2019-04-05T20:12:34.870Z,17.50
2019-04-05T20:15:07.419Z,17.65
2019-04-05T20:17:39.686Z,18.25
2019-04-05T20:20:11.014Z,19.67
2019-04-05T20:22:42.108Z,16.90
2019-04-05T20:25:13.131Z,17.50
2019-04-05T20:27:44.961Z,18.65
2019-04-05T20:30:15.886Z,17.30
2019-04-05T20:32:46.527Z,21.42
2019-04-05T20:35:17.213Z,16.97
2019-04-05T20:37:47.797Z,45.43
2019-04-05T20:40:18.455Z,51.65
2019-04-05T20:42:49.047Z,32.80
2019-04-05T20:45:20.011Z,21.62
2019-04-05T20:47:52.666Z,18.37
2019-04-05T20:50:23.345Z,18.37
2019-04-05T20:52:53.897Z,18.27
2019-04-05T20:55:24.643Z,21.60
2019-04-05T20:57:55.822Z,21.70
2019-04-05T21:00:26.630Z,18.75
2019-04-05T21:02:57.168Z,19.15
2019-04-05T21:05:27.827Z,21.12
2019-04-05T21:07:59.543Z,17.52
2019-04-05T21:10:30.303Z,17.75
2019-04-05T21:13:00.927Z,16.15
2019-04-05T21:15:31.627Z,13.70
2019-04-05T21:18:04.539Z,15.03
2019-04-05T21:20:35.286Z,11.63
2019-04-05T21:23:05.838Z,10.35
2019-04-05T21:25:36.563Z,8.98
2019-04-05T21:28:09.327Z,9.35
2019-04-05T21:30:40.145Z,9.65
2019-04-05T21:33:10.679Z,7.30
2019-04-05T21:35:41.413Z,9.40
2019-04-05T21:38:13.071Z,7.28
2019-04-05T21:40:43.825Z,5.12
2019-04-05T21:43:14.359Z,6.00
2019-04-05T21:45:45.008Z,7.42
2019-04-05T21:48:17.527Z,7.45
2019-04-05T21:50:48.275Z,4.28
2019-04-05T21:53:20.311Z,5.78
2019-04-05T21:55:51.064Z,5.95
2019-04-05T21:58:22.721Z,7.45
2019-04-05T22:00:55.072Z,7.75
2019-04-05T22:03:26.479Z,10.65
2019-04-05T22:05:57.282Z,5.67
2019-04-05T22:08:28.995Z,5.58
2019-04-05T22:10:59.715Z,5.62
2019-04-05T22:13:30.225Z,5.60
2019-04-05T22:16:00.856Z,4.67
2019-04-05T22:18:32.592Z,3.67
2019-04-05T22:21:03.298Z,5.42
2019-04-05T22:23:33.933Z,3.45
2019-04-05T22:26:04.669Z,6.83
2019-04-05T22:28:34.626Z,6.30
2019-04-05T22:31:05.308Z,4.60
2019-04-05T22:33:35.952Z,4.83
2019-04-05T22:36:06.692Z,7.05
2019-04-05T22:38:37.221Z,6.03
2019-04-05T22:41:07.874Z,5.47
2019-04-05T22:43:38.591Z,4.67
2019-04-05T22:46:09.203Z,4.87
2019-04-05T22:48:40.672Z,5.60
2019-04-05T22:51:11.314Z,4.53
2019-04-05T22:53:41.965Z,9.28
2019-04-05T22:56:12.687Z,9.48
2019-04-05T22:58:43.223Z,5.05
2019-04-05T23:01:13.909Z,2.83
2019-04-05T23:03:44.434Z,7.35
2019-04-05T23:06:15.117Z,5.67
2019-04-05T23:08:45.659Z,6.95
2019-04-05T23:11:16.380Z,5.28
2019-04-05T23:13:46.980Z,3.27
2019-04-05T23:16:17.625Z,3.40
2019-04-05T23:18:47.627Z,6.25
2019-04-05T23:21:18.239Z,4.28
2019-04-05T23:23:48.306Z,3.35
2019-04-05T23:26:18.942Z,4.42
2019-04-05T23:28:49.479Z,5.85
2019-04-05T23:31:20.256Z,5.83
2019-04-05T23:33:50.760Z,4.20
2019-04-05T23:36:21.401Z,3.98
2019-04-05T23:38:51.922Z,5.35
2019-04-05T23:41:22.661Z,5.95
2019-04-05T23:43:53.201Z,3.45
2019-04-05T23:46:23.944Z,3.92
2019-04-05T23:48:55.449Z,2.22
2019-04-05T23:51:26.246Z,4.00
2019-04-05T23:53:56.856Z,2.50
2019-04-05T23:56:27.494Z,3.40
2019-04-05T23:58:58.147Z,6.25
